createdAt,value
2023-04-26T00:00:30.829Z,89.39
2023-04-26T00:01:31.075Z,87.73
2023-04-26T00:02:30.880Z,87.73
2023-04-26T00:03:30.935Z,87.01
2023-04-26T00:04:30.998Z,88.31
2023-04-26T00:05:30.787Z,88.31
2023-04-26T00:06:30.725Z,86.65
2023-04-26T00:07:30.752Z,86.03
2023-04-26T00:08:30.701Z,85.72
2023-04-26T00:09:30.721Z,86.86
2023-04-26T00:10:30.678Z,88.21
2023-04-26T00:11:30.693Z,88.84
2023-04-26T00:12:30.667Z,88.52
2023-04-26T00:13:30.689Z,88.10
2023-04-26T00:14:30.670Z,86.65
2023-04-26T00:15:30.661Z,87.59
2023-04-26T00:16:30.657Z,88.25
2023-04-26T00:17:30.675Z,87.94
2023-04-26T00:18:30.614Z,87.73
2023-04-26T00:19:30.635Z,87.73
2023-04-26T00:20:30.587Z,87.17
2023-04-26T00:21:30.587Z,87.07
2023-04-26T00:22:30.548Z,87.69
2023-04-26T00:23:30.570Z,87.27
2023-04-26T00:24:30.529Z,87.79
2023-04-26T00:25:30.725Z,88.31
2023-04-26T00:26:30.525Z,88.35
2023-04-26T00:27:30.530Z,89.18
2023-04-26T00:28:30.485Z,88.98
2023-04-26T00:29:30.515Z,89.29
2023-04-26T00:30:30.462Z,89.18
2023-04-26T00:31:30.547Z,88.87
2023-04-26T00:32:30.527Z,89.33
2023-04-26T00:33:30.480Z,90.06
2023-04-26T00:34:30.428Z,90.16
2023-04-26T00:35:30.448Z,89.54
2023-04-26T00:36:30.403Z,89.23
2023-04-26T00:37:30.443Z,90.06
2023-04-26T00:38:30.413Z,90.47
2023-04-26T00:39:30.640Z,90.83
2023-04-26T00:40:30.377Z,91.66
2023-04-26T00:41:30.385Z,92.29
2023-04-26T00:42:30.353Z,92.12
2023-04-26T00:43:30.602Z,92.64
2023-04-26T00:44:30.335Z,92.99
2023-04-26T00:45:30.414Z,93.31
2023-04-26T00:46:30.315Z,93.62
2023-04-26T00:47:30.346Z,93.52
2023-04-26T00:48:30.285Z,93.41
2023-04-26T00:49:30.321Z,93.73
2023-04-26T00:50:30.273Z,93.62
2023-04-26T00:51:30.290Z,92.89
2023-04-26T00:52:30.245Z,93.10
2023-04-26T00:53:30.254Z,93.52
2023-04-26T00:54:30.288Z,93.62
2023-04-26T00:55:30.290Z,93.83
2023-04-26T00:56:30.230Z,94.14
2023-04-26T00:57:30.197Z,94.35
2023-04-26T00:58:30.209Z,93.56
2023-04-26T00:59:30.179Z,94.08
2023-04-26T01:00:30.193Z,93.87
2023-04-26T01:01:30.215Z,93.98
2023-04-26T01:02:30.278Z,94.18
2023-04-26T01:03:30.304Z,93.87
2023-04-26T01:04:30.186Z,94.33
2023-04-26T01:05:30.132Z,94.96
2023-04-26T01:06:30.130Z,95.06
2023-04-26T01:07:30.123Z,94.75
2023-04-26T01:08:30.107Z,95.27
2023-04-26T01:09:30.083Z,94.02
2023-04-26T01:10:30.095Z,94.33
2023-04-26T01:11:30.062Z,94.48
2023-04-26T01:12:30.077Z,95.52
2023-04-26T01:13:30.064Z,95.73
2023-04-26T01:14:30.062Z,96.46
2023-04-26T01:15:30.006Z,96.56
2023-04-26T01:16:30.073Z,96.36
2023-04-26T01:17:30.022Z,96.56
2023-04-26T01:18:30.007Z,96.15
2023-04-26T01:19:29.984Z,96.56
2023-04-26T01:20:30.025Z,97.03
2023-04-26T01:21:29.954Z,97.55
2023-04-26T01:22:29.972Z,97.75
2023-04-26T01:23:29.947Z,97.44
2023-04-26T01:24:29.937Z,96.71
2023-04-26T01:25:29.951Z,96.82
2023-04-26T01:26:29.924Z,97.34
2023-04-26T01:27:29.892Z,97.44
2023-04-26T01:28:29.945Z,97.75
2023-04-26T01:29:29.868Z,97.30
2023-04-26T01:30:29.883Z,96.77
2023-04-26T01:31:29.940Z,96.88
2023-04-26T01:32:29.898Z,96.67
2023-04-26T01:33:29.838Z,96.46
2023-04-26T01:34:29.851Z,96.61
2023-04-26T01:35:29.808Z,97.24
2023-04-26T01:36:29.822Z,96.82
2023-04-26T01:37:29.808Z,96.92
2023-04-26T01:38:29.801Z,96.19
2023-04-26T01:39:29.771Z,96.34
2023-04-26T01:40:29.781Z,97.07
2023-04-26T01:41:29.755Z,97.53
2023-04-26T01:42:29.759Z,97.95
2023-04-26T01:43:29.746Z,98.79
2023-04-26T01:44:29.748Z,98.89
2023-04-26T01:45:29.713Z,99.20
2023-04-26T01:46:29.760Z,98.22
2023-04-26T01:47:29.706Z,98.16
2023-04-26T01:48:29.712Z,98.16
2023-04-26T01:49:29.686Z,98.16
2023-04-26T01:50:29.818Z,98.79
2023-04-26T01:51:29.668Z,98.79
2023-04-26T01:52:29.652Z,98.37
2023-04-26T01:53:29.627Z,98.37
2023-04-26T01:54:29.655Z,98.53
2023-04-26T01:55:29.630Z,98.11
2023-04-26T01:56:29.624Z,97.70
2023-04-26T01:57:29.582Z,97.80
2023-04-26T01:58:29.604Z,97.49
2023-04-26T01:59:29.565Z,97.38
2023-04-26T02:00:29.578Z,97.74
2023-04-26T02:01:29.613Z,97.95
2023-04-26T02:02:29.609Z,98.31
2023-04-26T02:03:29.562Z,98.68
2023-04-26T02:04:29.617Z,98.79
2023-04-26T02:05:29.606Z,98.26
2023-04-26T02:06:29.530Z,97.91
2023-04-26T02:07:29.508Z,97.80
2023-04-26T02:08:29.492Z,97.80
2023-04-26T02:09:29.476Z,97.38
2023-04-26T02:10:29.484Z,97.07
2023-04-26T02:11:29.449Z,96.97
2023-04-26T02:12:29.480Z,96.44
2023-04-26T02:13:29.447Z,96.03
2023-04-26T02:14:29.457Z,96.13
2023-04-26T02:15:29.417Z,95.88
2023-04-26T02:16:29.545Z,95.36
2023-04-26T02:17:29.423Z,95.67
2023-04-26T02:18:29.396Z,95.46
2023-04-26T02:19:29.385Z,95.25
2023-04-26T02:20:29.382Z,95.36
2023-04-26T02:21:29.342Z,95.36
2023-04-26T02:22:29.362Z,95.36
2023-04-26T02:23:29.326Z,95.04
2023-04-26T02:24:29.348Z,95.25
2023-04-26T02:25:29.342Z,95.00
2023-04-26T02:26:29.324Z,94.48
2023-04-26T02:27:29.279Z,94.27
2023-04-26T02:28:29.294Z,93.96
2023-04-26T02:29:43.123Z,94.21
2023-04-26T02:30:29.281Z,94.52
2023-04-26T02:31:29.291Z,94.94
2023-04-26T02:32:29.275Z,94.42
2023-04-26T02:33:29.227Z,94.57
2023-04-26T02:34:29.240Z,95.40
2023-04-26T02:35:29.229Z,96.17
2023-04-26T02:36:29.217Z,96.66
2023-04-26T02:37:29.218Z,96.34
2023-04-26T02:38:29.198Z,95.72
2023-04-26T02:39:29.168Z,95.92
2023-04-26T02:40:29.176Z,95.92
2023-04-26T02:41:29.166Z,95.40
2023-04-26T02:42:29.157Z,95.61
2023-04-26T02:43:29.193Z,94.78
2023-04-26T02:44:29.148Z,94.78
2023-04-26T02:45:29.126Z,95.09
2023-04-26T02:46:29.138Z,95.09
2023-04-26T02:47:29.105Z,95.50
2023-04-26T02:48:29.154Z,95.50
2023-04-26T02:49:29.072Z,95.72
2023-04-26T02:50:29.084Z,96.03
2023-04-26T02:51:29.048Z,96.03
2023-04-26T02:52:29.064Z,95.97
2023-04-26T02:53:29.037Z,95.97
2023-04-26T02:54:29.032Z,96.28
2023-04-26T02:55:29.017Z,95.61
2023-04-26T02:56:29.009Z,95.50
2023-04-26T02:57:28.981Z,95.40
2023-04-26T02:58:29.006Z,95.56
2023-04-26T02:59:28.961Z,95.25
2023-04-26T03:00:28.982Z,95.29
2023-04-26T03:01:29.031Z,95.61
2023-04-26T03:02:29.094Z,96.23
2023-04-26T03:03:29.101Z,96.17
2023-04-26T03:04:28.933Z,96.80
2023-04-26T03:05:28.904Z,97.11
2023-04-26T03:06:28.916Z,97.01
2023-04-26T03:07:28.903Z,96.84
2023-04-26T03:08:28.904Z,97.27
2023-04-26T03:09:28.855Z,97.58
2023-04-26T03:10:28.869Z,97.58
2023-04-26T03:11:28.848Z,97.78
2023-04-26T03:12:28.847Z,97.37
2023-04-26T03:13:28.852Z,97.68
2023-04-26T03:14:28.836Z,97.99
2023-04-26T03:15:28.795Z,98.41
2023-04-26T03:16:28.919Z,98.21
2023-04-26T03:17:28.794Z,98.31
2023-04-26T03:18:28.854Z,98.21
2023-04-26T03:19:28.775Z,98.72
2023-04-26T03:20:28.772Z,98.21
2023-04-26T03:21:28.737Z,97.99
2023-04-26T03:22:28.762Z,97.68
2023-04-26T03:23:28.751Z,97.16
2023-04-26T03:24:28.740Z,97.20
2023-04-26T03:25:28.719Z,97.41
2023-04-26T03:26:28.754Z,98.35
2023-04-26T03:27:28.684Z,97.83
2023-04-26T03:28:28.702Z,97.94
2023-04-26T03:29:28.692Z,98.14
2023-04-26T03:30:28.683Z,98.31
2023-04-26T03:31:28.700Z,98.10
2023-04-26T03:32:28.685Z,97.47
2023-04-26T03:33:28.625Z,97.58
2023-04-26T03:34:28.679Z,97.78
2023-04-26T03:35:28.619Z,97.64
2023-04-26T03:36:28.634Z,97.16
2023-04-26T03:37:28.605Z,97.05
2023-04-26T03:38:28.592Z,97.05
2023-04-26T03:39:28.576Z,97.10
2023-04-26T03:40:28.570Z,97.47
2023-04-26T03:41:28.547Z,97.47
2023-04-26T03:42:28.556Z,97.68
2023-04-26T03:43:28.562Z,97.47
2023-04-26T03:44:30.495Z,97.37
2023-04-26T03:45:28.497Z,97.16
2023-04-26T03:46:28.538Z,96.95
2023-04-26T03:47:28.530Z,96.95
2023-04-26T03:48:28.500Z,96.43
2023-04-26T03:49:28.482Z,96.22
2023-04-26T03:50:28.487Z,96.64
2023-04-26T03:51:28.445Z,96.84
2023-04-26T03:52:28.458Z,96.22
2023-04-26T03:53:28.434Z,96.01
2023-04-26T03:54:28.434Z,96.11
2023-04-26T03:55:28.445Z,96.53
2023-04-26T03:56:28.445Z,96.53
2023-04-26T03:57:28.389Z,96.33
2023-04-26T03:58:28.423Z,95.84
2023-04-26T03:59:28.371Z,96.33
2023-04-26T04:00:28.378Z,96.33
2023-04-26T04:01:28.355Z,96.01
2023-04-26T04:02:28.446Z,96.07
2023-04-26T04:03:28.519Z,95.86
2023-04-26T04:04:28.506Z,95.65
2023-04-26T04:05:28.428Z,95.23
2023-04-26T04:06:28.321Z,95.13
2023-04-26T04:07:28.303Z,95.55
2023-04-26T04:08:28.295Z,95.55
2023-04-26T04:09:28.254Z,95.28
2023-04-26T04:10:28.271Z,95.28
2023-04-26T04:11:28.272Z,95.70
2023-04-26T04:12:28.251Z,96.05
2023-04-26T04:13:28.252Z,96.26
2023-04-26T04:14:28.223Z,96.89
2023-04-26T04:15:28.210Z,97.31
2023-04-26T04:16:28.296Z,97.04
2023-04-26T04:17:28.409Z,97.14
2023-04-26T04:18:28.220Z,96.10
2023-04-26T04:19:28.183Z,97.41
2023-04-26T04:20:28.189Z,97.62
2023-04-26T04:21:28.137Z,97.31
2023-04-26T04:22:28.184Z,97.20
2023-04-26T04:23:28.138Z,97.41
2023-04-26T04:24:28.138Z,97.31
2023-04-26T04:25:28.129Z,97.20
2023-04-26T04:26:28.110Z,97.10
2023-04-26T04:27:28.090Z,96.26
2023-04-26T04:28:28.090Z,95.43
2023-04-26T04:29:28.080Z,95.11
2023-04-26T04:30:28.083Z,95.32
2023-04-26T04:31:28.108Z,96.47
2023-04-26T04:32:28.078Z,97.45
2023-04-26T04:33:28.006Z,98.19
2023-04-26T04:34:28.016Z,98.61
2023-04-26T04:35:27.990Z,98.77
2023-04-26T04:36:28.048Z,99.08
2023-04-26T04:37:27.994Z,99.08
2023-04-26T04:38:27.983Z,98.93
2023-04-26T04:39:27.972Z,98.41
2023-04-26T04:40:27.966Z,97.99
2023-04-26T04:41:27.967Z,97.43
2023-04-26T04:42:27.953Z,97.01
2023-04-26T04:43:27.951Z,96.70
2023-04-26T04:44:27.936Z,96.38
2023-04-26T04:45:27.899Z,96.28
2023-04-26T04:46:27.970Z,96.07
2023-04-26T04:47:27.907Z,95.65
2023-04-26T04:48:27.892Z,95.19
2023-04-26T04:49:27.905Z,95.09
2023-04-26T04:50:27.862Z,95.13
2023-04-26T04:51:27.842Z,94.92
2023-04-26T04:52:27.841Z,95.03
2023-04-26T04:53:27.823Z,94.92
2023-04-26T04:54:27.841Z,94.98
2023-04-26T04:55:27.819Z,95.29
2023-04-26T04:56:27.811Z,95.50
2023-04-26T04:57:27.770Z,95.19
2023-04-26T04:58:27.827Z,94.25
2023-04-26T04:59:28.168Z,94.57
2023-04-26T05:00:27.765Z,94.67
2023-04-26T05:01:27.810Z,94.57
2023-04-26T05:02:28.009Z,94.57
2023-04-26T05:03:27.803Z,94.67
2023-04-26T05:04:27.955Z,94.88
2023-04-26T05:05:27.696Z,95.09
2023-04-26T05:06:27.742Z,95.72
2023-04-26T05:07:29.083Z,95.82
2023-04-26T05:08:27.682Z,95.61
2023-04-26T05:09:27.652Z,96.34
2023-04-26T05:10:27.661Z,96.92
2023-04-26T05:11:27.665Z,97.13
2023-04-26T05:12:27.653Z,97.34
2023-04-26T05:13:27.658Z,97.03
2023-04-26T05:14:27.612Z,96.88
2023-04-26T05:15:27.620Z,96.56
2023-04-26T05:16:27.615Z,96.56
2023-04-26T05:17:27.604Z,96.04
2023-04-26T05:18:27.592Z,95.94
2023-04-26T05:19:27.604Z,96.67
2023-04-26T05:20:27.550Z,97.04
2023-04-26T05:21:27.554Z,97.25
2023-04-26T05:22:27.520Z,97.10
2023-04-26T05:23:27.554Z,96.01
2023-04-26T05:24:27.505Z,96.08
2023-04-26T05:25:27.562Z,94.74
2023-04-26T05:26:27.507Z,92.05
2023-04-26T05:27:27.497Z,89.89
2023-04-26T05:28:27.457Z,87.61
2023-04-26T05:29:27.483Z,86.57
2023-04-26T05:30:27.441Z,86.36
2023-04-26T05:31:27.482Z,85.99
2023-04-26T05:32:27.465Z,87.45
2023-04-26T05:33:27.438Z,88.17
2023-04-26T05:34:27.419Z,89.11
2023-04-26T05:35:27.416Z,87.51
2023-04-26T05:36:29.642Z,86.88
2023-04-26T05:37:27.415Z,86.64
2023-04-26T05:38:27.363Z,85.97
2023-04-26T05:39:27.369Z,85.00
2023-04-26T05:40:27.386Z,84.03
2023-04-26T05:41:27.388Z,81.47
2023-04-26T05:42:27.334Z,81.64
2023-04-26T05:43:27.358Z,82.15
2023-04-26T05:44:27.357Z,81.12
2023-04-26T05:45:27.360Z,80.98
2023-04-26T05:46:27.365Z,80.36
2023-04-26T05:47:27.342Z,80.26
2023-04-26T05:48:27.282Z,79.53
2023-04-26T05:49:27.305Z,78.98
2023-04-26T05:50:27.242Z,78.60
2023-04-26T05:51:27.257Z,80.46
2023-04-26T05:52:27.232Z,80.77
2023-04-26T05:53:27.234Z,80.67
2023-04-26T05:54:27.195Z,79.12
2023-04-26T05:55:27.247Z,78.85
2023-04-26T05:56:27.178Z,80.60
2023-04-26T05:57:27.270Z,81.54
2023-04-26T05:58:27.157Z,81.33
2023-04-26T05:59:27.170Z,80.12
2023-04-26T06:00:27.137Z,82.75
2023-04-26T06:01:27.163Z,82.23
2023-04-26T06:02:27.207Z,82.23
2023-04-26T06:03:27.307Z,82.89
2023-04-26T06:04:27.521Z,84.03
2023-04-26T06:05:27.313Z,84.17
2023-04-26T06:06:27.070Z,85.21
2023-04-26T06:07:27.106Z,85.94
2023-04-26T06:08:27.047Z,86.04
2023-04-26T06:09:27.072Z,85.31
2023-04-26T06:10:27.039Z,85.27
2023-04-26T06:11:27.081Z,86.62
2023-04-26T06:12:27.019Z,84.75
2023-04-26T06:13:27.037Z,84.65
2023-04-26T06:14:30.726Z,84.30
2023-04-26T06:15:26.995Z,84.75
2023-04-26T06:16:26.997Z,84.51
2023-04-26T06:17:27.056Z,84.72
2023-04-26T06:18:26.961Z,85.71
2023-04-26T06:19:26.993Z,83.95
2023-04-26T06:20:26.928Z,83.33
2023-04-26T06:21:26.953Z,83.85
2023-04-26T06:22:26.909Z,83.33
2023-04-26T06:23:26.917Z,82.92
2023-04-26T06:24:26.900Z,82.88
2023-04-26T06:25:26.939Z,84.95
2023-04-26T06:26:26.869Z,83.54
2023-04-26T06:27:26.873Z,84.47
2023-04-26T06:28:26.855Z,85.19
2023-04-26T06:29:26.874Z,84.78
2023-04-26T06:30:26.867Z,84.27
2023-04-26T06:31:26.896Z,85.71
2023-04-26T06:32:26.865Z,84.53
2023-04-26T06:33:26.818Z,83.23
2023-04-26T06:34:26.786Z,83.12
2023-04-26T06:35:26.788Z,83.68
2023-04-26T06:36:26.772Z,85.13
2023-04-26T06:37:26.803Z,86.44
2023-04-26T06:38:26.847Z,84.84
2023-04-26T06:39:26.762Z,83.36
2023-04-26T06:40:26.720Z,83.63
2023-04-26T06:41:26.730Z,81.15
2023-04-26T06:42:26.701Z,82.90
2023-04-26T06:43:26.776Z,81.87
2023-04-26T06:44:26.677Z,80.94
2023-04-26T06:45:26.724Z,82.80
2023-04-26T06:46:26.765Z,81.67
2023-04-26T06:47:26.709Z,81.05
2023-04-26T06:48:26.652Z,81.19
2023-04-26T06:49:26.997Z,81.49
2023-04-26T06:50:26.666Z,82.12
2023-04-26T06:51:26.870Z,82.26
2023-04-26T06:52:26.599Z,82.01
2023-04-26T06:53:26.620Z,82.18
2023-04-26T06:54:26.579Z,80.32
2023-04-26T06:55:26.609Z,80.90
2023-04-26T06:56:26.561Z,80.25
2023-04-26T06:57:26.589Z,79.49
2023-04-26T06:58:26.546Z,81.31
2023-04-26T06:59:26.551Z,79.45
2023-04-26T07:00:26.551Z,78.35
2023-04-26T07:01:26.827Z,79.55
2023-04-26T07:02:26.633Z,77.94
2023-04-26T07:03:26.655Z,78.66
2023-04-26T07:04:26.611Z,78.25
2023-04-26T07:05:26.491Z,79.01
2023-04-26T07:06:26.501Z,79.52
2023-04-26T07:07:26.513Z,79.01
2023-04-26T07:08:26.480Z,80.15
2023-04-26T07:09:26.442Z,79.11
2023-04-26T07:10:26.540Z,79.11
2023-04-26T07:11:26.496Z,80.46
2023-04-26T07:12:26.457Z,79.28
2023-04-26T07:13:26.437Z,79.32
2023-04-26T07:14:26.370Z,81.45
2023-04-26T07:15:26.375Z,79.90
2023-04-26T07:16:26.404Z,78.77
2023-04-26T07:17:26.367Z,79.69
2023-04-26T07:18:26.329Z,79.66
2023-04-26T07:19:26.360Z,78.87
2023-04-26T07:20:26.339Z,79.69
2023-04-26T07:21:26.317Z,79.08
2023-04-26T07:22:26.279Z,78.97
2023-04-26T07:23:26.308Z,79.80
2023-04-26T07:24:26.261Z,80.48
2023-04-26T07:25:26.303Z,80.69
2023-04-26T07:26:26.642Z,80.86
2023-04-26T07:27:26.249Z,79.79
2023-04-26T07:28:26.232Z,77.08
2023-04-26T07:29:26.270Z,76.66
2023-04-26T07:30:26.331Z,78.62
2023-04-26T07:31:26.238Z,76.11
2023-04-26T07:32:26.336Z,74.77
2023-04-26T07:33:26.367Z,74.98
2023-04-26T07:34:26.162Z,76.49
2023-04-26T07:35:26.189Z,74.40
2023-04-26T07:36:26.160Z,74.57
2023-04-26T07:37:26.172Z,73.33
2023-04-26T07:38:26.121Z,72.54
2023-04-26T07:39:26.136Z,72.13
2023-04-26T07:40:26.223Z,74.02
2023-04-26T07:41:26.121Z,74.95
2023-04-26T07:42:26.076Z,73.57
2023-04-26T07:43:26.107Z,72.37
2023-04-26T07:44:26.063Z,73.09
2023-04-26T07:45:26.126Z,71.34
2023-04-26T07:46:26.196Z,71.65
2023-04-26T07:47:26.107Z,72.64
2023-04-26T07:48:26.048Z,71.37
2023-04-26T07:49:26.046Z,70.52
2023-04-26T07:50:25.993Z,70.59
2023-04-26T07:51:26.002Z,71.35
2023-04-26T07:52:26.017Z,66.49
2023-04-26T07:53:25.972Z,66.69
2023-04-26T07:54:25.951Z,68.48
2023-04-26T07:55:26.004Z,65.36
2023-04-26T07:56:25.932Z,67.38
2023-04-26T07:57:25.938Z,65.03
2023-04-26T07:58:25.912Z,65.36
2023-04-26T07:59:25.922Z,63.24
2023-04-26T08:00:25.882Z,63.51
2023-04-26T08:01:25.920Z,64.31
2023-04-26T08:02:36.802Z,65.48
2023-04-26T08:03:26.008Z,62.68
2023-04-26T08:04:26.050Z,64.25
2023-04-26T08:05:26.075Z,63.05
2023-04-26T08:06:26.048Z,63.47
2023-04-26T08:07:25.861Z,64.84
2023-04-26T08:08:25.802Z,65.11
2023-04-26T08:09:25.814Z,66.06
2023-04-26T08:10:25.796Z,66.24
2023-04-26T08:11:25.837Z,65.00
2023-04-26T08:12:25.782Z,65.80
2023-04-26T08:13:28.601Z,64.01
2023-04-26T08:14:25.757Z,64.43
2023-04-26T08:15:25.764Z,65.01
2023-04-26T08:16:25.768Z,64.29
2023-04-26T08:17:25.816Z,65.32
2023-04-26T08:18:25.693Z,63.75
2023-04-26T08:19:25.725Z,60.91
2023-04-26T08:20:25.672Z,61.44
2023-04-26T08:21:25.676Z,62.16
2023-04-26T08:22:25.647Z,62.48
2023-04-26T08:23:25.666Z,61.76
2023-04-26T08:24:25.636Z,61.86
2023-04-26T08:25:25.655Z,63.94
2023-04-26T08:26:25.601Z,62.60
2023-04-26T08:27:25.634Z,65.80
2023-04-26T08:28:25.586Z,62.09
2023-04-26T08:29:25.598Z,61.71
2023-04-26T08:30:25.560Z,62.35
2023-04-26T08:31:25.666Z,63.07
2023-04-26T08:32:25.617Z,62.97
2023-04-26T08:33:25.552Z,62.79
2023-04-26T08:34:25.520Z,63.00
2023-04-26T08:35:25.540Z,64.34
2023-04-26T08:36:25.507Z,65.26
2023-04-26T08:37:26.498Z,65.47
2023-04-26T08:38:25.481Z,65.06
2023-04-26T08:39:25.496Z,64.44
2023-04-26T08:40:25.517Z,63.93
2023-04-26T08:41:25.467Z,64.14
2023-04-26T08:42:25.467Z,64.44
2023-04-26T08:43:25.472Z,62.52
2023-04-26T08:44:25.455Z,63.13
2023-04-26T08:45:25.435Z,62.79
2023-04-26T08:46:25.501Z,64.03
2023-04-26T08:47:25.460Z,62.46
2023-04-26T08:48:25.377Z,61.14
2023-04-26T08:49:25.418Z,59.41
2023-04-26T08:50:25.359Z,59.17
2023-04-26T08:51:25.382Z,62.51
2023-04-26T08:52:25.338Z,57.19
2023-04-26T08:53:25.387Z,53.55
2023-04-26T08:54:25.338Z,48.60
2023-04-26T08:55:25.356Z,50.86
2023-04-26T08:56:25.292Z,52.24
2023-04-26T08:57:25.303Z,54.10
2023-04-26T08:58:25.284Z,56.26
2023-04-26T08:59:25.296Z,55.74
2023-04-26T09:00:25.255Z,57.51
2023-04-26T09:01:25.389Z,58.16
2023-04-26T09:02:25.417Z,58.78
2023-04-26T09:03:25.434Z,60.21
2023-04-26T09:04:25.489Z,59.80
2023-04-26T09:05:25.225Z,60.93
2023-04-26T09:06:25.190Z,60.31
2023-04-26T09:07:25.217Z,61.88
2023-04-26T09:08:25.197Z,61.58
2023-04-26T09:09:25.728Z,61.99
2023-04-26T09:10:25.158Z,62.99
2023-04-26T09:11:25.182Z,60.42
2023-04-26T09:12:25.127Z,60.63
2023-04-26T09:13:25.165Z,61.86
2023-04-26T09:14:25.118Z,60.86
2023-04-26T09:15:25.130Z,61.47
2023-04-26T09:16:25.111Z,59.96
2023-04-26T09:17:25.165Z,62.19
2023-04-26T09:18:25.077Z,59.42
2023-04-26T09:19:25.090Z,60.11
2023-04-26T09:20:25.053Z,58.54
2023-04-26T09:21:25.069Z,56.64
2023-04-26T09:22:25.018Z,54.41
2023-04-26T09:23:25.057Z,53.11
2023-04-26T09:24:25.000Z,56.61
2023-04-26T09:25:25.029Z,51.16
2023-04-26T09:26:24.979Z,54.10
2023-04-26T09:27:24.961Z,55.69
2023-04-26T09:28:24.985Z,56.64
2023-04-26T09:29:24.944Z,57.90
2023-04-26T09:30:24.956Z,58.83
2023-04-26T09:31:24.984Z,60.95
2023-04-26T09:32:24.941Z,58.62
2023-04-26T09:33:24.938Z,59.34
2023-04-26T09:34:24.929Z,60.54
2023-04-26T09:35:24.884Z,59.62
2023-04-26T09:36:24.898Z,60.03
2023-04-26T09:37:24.883Z,57.28
2023-04-26T09:38:24.882Z,57.51
2023-04-26T09:39:24.836Z,61.32
2023-04-26T09:40:24.869Z,60.08
2023-04-26T09:41:24.842Z,57.31
2023-04-26T09:42:24.830Z,56.70
2023-04-26T09:43:24.841Z,57.34
2023-04-26T09:44:24.815Z,59.06
2023-04-26T09:45:24.802Z,57.31
2023-04-26T09:46:24.878Z,57.62
2023-04-26T09:47:24.785Z,57.41
2023-04-26T09:48:24.790Z,58.00
2023-04-26T09:49:24.765Z,57.00
2023-04-26T09:50:24.745Z,56.82
2023-04-26T09:51:24.720Z,58.59
2023-04-26T09:52:24.734Z,58.78
2023-04-26T09:53:24.690Z,58.78
2023-04-26T09:54:24.740Z,57.82
2023-04-26T09:55:34.156Z,58.41
2023-04-26T09:56:24.712Z,58.90
2023-04-26T09:57:24.661Z,59.41
2023-04-26T09:58:24.672Z,55.90
2023-04-26T09:59:24.632Z,54.97
2023-04-26T10:00:24.643Z,53.56
2023-04-26T10:01:24.724Z,55.02
2023-04-26T10:02:24.703Z,54.82
2023-04-26T10:03:24.858Z,54.85
2023-04-26T10:04:24.710Z,57.00
2023-04-26T10:05:24.590Z,59.54
2023-04-26T10:06:24.604Z,55.62
2023-04-26T10:07:24.571Z,55.41
2023-04-26T10:08:24.556Z,55.79
2023-04-26T10:09:24.520Z,55.38
2023-04-26T10:10:24.571Z,56.62
2023-04-26T10:11:24.506Z,54.74
2023-04-26T10:12:24.520Z,52.92
2023-04-26T10:13:24.573Z,53.25
2023-04-26T10:14:24.502Z,54.49
2023-04-26T10:15:24.465Z,53.85
2023-04-26T10:16:24.543Z,54.66
2023-04-26T10:17:24.471Z,53.54
2023-04-26T10:18:24.481Z,53.44
2023-04-26T10:19:24.457Z,53.72
2023-04-26T10:20:24.432Z,52.69
2023-04-26T10:21:24.392Z,51.90
2023-04-26T10:22:24.417Z,52.72
2023-04-26T10:23:24.468Z,53.05
2023-04-26T10:24:24.391Z,54.08
2023-04-26T10:25:24.376Z,52.76
2023-04-26T10:26:24.377Z,54.10
2023-04-26T10:27:24.352Z,53.92
2023-04-26T10:28:24.350Z,53.72
2023-04-26T10:29:24.355Z,54.92
2023-04-26T10:30:24.320Z,53.69
2023-04-26T10:31:24.333Z,54.33
2023-04-26T10:32:24.326Z,54.85
2023-04-26T10:33:24.299Z,55.74
2023-04-26T10:34:24.294Z,55.98
2023-04-26T10:35:24.254Z,55.02
2023-04-26T10:36:24.270Z,55.02
2023-04-26T10:37:24.261Z,54.82
2023-04-26T10:38:24.265Z,54.10
2023-04-26T10:39:24.224Z,53.79
2023-04-26T10:40:24.238Z,54.00
2023-04-26T10:41:24.192Z,55.02
2023-04-26T10:42:25.679Z,53.08
2023-04-26T10:43:24.409Z,52.56
2023-04-26T10:44:24.190Z,52.38
2023-04-26T10:45:24.168Z,52.48
2023-04-26T10:46:24.244Z,54.10
2023-04-26T10:47:24.170Z,52.15
2023-04-26T10:48:24.159Z,51.53
2023-04-26T10:49:26.429Z,50.63
2023-04-26T10:50:24.118Z,51.25
2023-04-26T10:51:24.127Z,51.95
2023-04-26T10:52:24.106Z,51.43
2023-04-26T10:53:24.068Z,51.74
2023-04-26T10:54:24.090Z,51.84
2023-04-26T10:55:25.449Z,51.64
2023-04-26T10:56:24.147Z,52.23
2023-04-26T10:57:24.049Z,49.59
2023-04-26T10:58:24.038Z,49.55
2023-04-26T10:59:36.797Z,49.83
2023-04-26T11:00:24.034Z,48.83
2023-04-26T11:01:24.013Z,47.93
2023-04-26T11:02:24.106Z,49.57
2023-04-26T11:03:24.221Z,49.34
2023-04-26T11:04:24.087Z,49.96
2023-04-26T11:05:25.475Z,51.18
2023-04-26T11:06:23.954Z,49.04
2023-04-26T11:07:23.964Z,50.47
2023-04-26T11:08:23.944Z,53.64
2023-04-26T11:09:23.899Z,49.37
2023-04-26T11:10:23.923Z,49.98
2023-04-26T11:11:23.923Z,50.70
2023-04-26T11:12:23.930Z,50.70
2023-04-26T11:13:23.943Z,50.01
2023-04-26T11:14:23.867Z,50.95
2023-04-26T11:15:23.862Z,51.69
2023-04-26T11:16:23.875Z,51.59
2023-04-26T11:17:23.863Z,52.82
2023-04-26T11:18:23.864Z,52.51
2023-04-26T11:19:23.821Z,53.36
2023-04-26T11:20:23.812Z,51.33
2023-04-26T11:21:23.784Z,52.36
2023-04-26T11:22:23.798Z,52.04
2023-04-26T11:23:23.777Z,52.25
2023-04-26T11:24:23.769Z,51.95
2023-04-26T11:25:23.772Z,52.64
2023-04-26T11:26:23.760Z,52.92
2023-04-26T11:27:23.712Z,51.77
2023-04-26T11:28:23.751Z,52.26
2023-04-26T11:29:23.691Z,52.36
2023-04-26T11:30:23.724Z,51.44
2023-04-26T11:31:23.792Z,51.34
2023-04-26T11:32:23.679Z,51.01
2023-04-26T11:33:23.643Z,50.90
2023-04-26T11:34:23.668Z,51.21
2023-04-26T11:35:23.653Z,53.33
2023-04-26T11:36:23.640Z,50.93
2023-04-26T11:37:23.630Z,49.60
2023-04-26T11:38:23.622Z,49.73
2023-04-26T11:39:23.588Z,49.04
2023-04-26T11:40:23.610Z,48.73
2023-04-26T11:41:23.560Z,49.11
2023-04-26T11:42:23.572Z,48.30
2023-04-26T11:43:23.577Z,47.58
2023-04-26T11:44:23.616Z,46.82
2023-04-26T11:45:23.524Z,48.31
2023-04-26T11:46:23.589Z,44.90
2023-04-26T11:47:23.508Z,44.08
2023-04-26T11:48:23.529Z,45.22
2023-04-26T11:49:23.492Z,45.98
2023-04-26T11:50:23.498Z,45.51
2023-04-26T11:51:23.460Z,47.27
2023-04-26T11:52:23.486Z,47.08
2023-04-26T11:53:23.450Z,46.15
2023-04-26T11:54:23.457Z,44.16
2023-04-26T11:55:23.449Z,43.08
2023-04-26T11:56:23.446Z,42.45
2023-04-26T11:57:23.394Z,44.46
2023-04-26T11:58:23.403Z,44.79
2023-04-26T11:59:23.395Z,42.63
2023-04-26T12:00:23.411Z,42.06
2023-04-26T12:01:23.788Z,43.55
2023-04-26T12:02:23.496Z,43.57
2023-04-26T12:03:23.569Z,44.84
2023-04-26T12:04:23.443Z,50.89
2023-04-26T12:05:23.342Z,47.64
2023-04-26T12:06:23.327Z,47.94
2023-04-26T12:07:23.311Z,47.05
2023-04-26T12:08:23.319Z,49.01
2023-04-26T12:09:23.276Z,48.30
2023-04-26T12:10:23.278Z,49.93
2023-04-26T12:11:23.256Z,49.16
2023-04-26T12:12:23.266Z,50.18
2023-04-26T12:13:23.264Z,51.21
2023-04-26T12:14:23.243Z,50.80
2023-04-26T12:15:23.213Z,49.96
2023-04-26T12:16:26.673Z,48.93
2023-04-26T12:17:23.228Z,50.09
2023-04-26T12:18:23.210Z,51.10
2023-04-26T12:19:23.180Z,49.06
2023-04-26T12:20:23.164Z,49.96
2023-04-26T12:21:23.162Z,48.44
2023-04-26T12:22:23.149Z,50.06
2023-04-26T12:23:23.131Z,47.81
2023-04-26T12:24:23.131Z,47.60
2023-04-26T12:25:23.133Z,48.19
2023-04-26T12:26:23.127Z,48.07
2023-04-26T12:27:23.082Z,48.17
2023-04-26T12:28:23.088Z,46.64
2023-04-26T12:29:23.165Z,46.25
2023-04-26T12:30:23.069Z,46.74
2023-04-26T12:31:23.107Z,46.53
2023-04-26T12:32:23.044Z,46.23
2023-04-26T12:33:23.263Z,48.30
2023-04-26T12:34:23.029Z,48.79
2023-04-26T12:35:23.018Z,48.56
2023-04-26T12:36:23.007Z,51.32
2023-04-26T12:37:22.996Z,49.81
2023-04-26T12:38:22.985Z,47.45
2023-04-26T12:39:22.960Z,46.15
2023-04-26T12:40:22.973Z,45.97
2023-04-26T12:41:23.010Z,47.40
2023-04-26T12:42:22.952Z,47.52
2023-04-26T12:43:22.952Z,47.93
2023-04-26T12:44:23.058Z,48.14
2023-04-26T12:45:22.901Z,51.03
2023-04-26T12:46:23.013Z,48.98
2023-04-26T12:47:22.887Z,48.26
2023-04-26T12:48:22.894Z,49.39
2023-04-26T12:49:22.861Z,51.01
2023-04-26T12:50:22.900Z,49.47
2023-04-26T12:51:22.835Z,50.62
2023-04-26T12:52:22.859Z,52.44